Dunkirk, New York
Current Conditions -  °F | °C
As of 10:53 PM on Wednesday 28 Jan 2015 (Local Time) from KDKK Reporting Station
Clear Clear  
Wind Chill: -15°   Ceiling: Unl
Heat Index: -15°   Visibility: 10mi
Dew Point: -17°   Wind: 3mph
Humidity: 84%   Direction: 210°SSW
Pressure: 30.29"   Gusts: NA
Location:  42.49°N, 79.34°W
Report Text: KDKK 290353Z AUTO 21003KT 10SM CLR M15/M17 A3029 RMK AO2 SLP271 T11501172
Loading
Personal Weather Stations






























Interactive Weather Map New forecast layout! Learn more

10-Day Weather Forecast

Advertisements
Track Severe Weather on mobile